Peace River, Canada
Current Conditions -  °F | °C
As of 4:00 PM on Wednesday 22 Oct 2014 (Local Time) from CYPE Reporting Station
Overcast Overcast  
Wind Chill: 52°   Ceiling: 9000
Heat Index: 52°   Visibility: 15mi
Dew Point: 37°   Wind: 5mph
Humidity: 58%   Direction: 180°S
Pressure: 29.48"   Gusts: NA
Location:  56.23°N, 117.29°W
Report Text: CYPE 222200Z 18004KT 15SM SCT060 OVC090 11/03 A2948 RMK SC4AC4 SLP998 DENSITY ALT 2300FT
Loading
Personal Weather Stations






























Interactive Weather Map
Tropical Storm Tracking
New forecast layout! Learn more

10-Day Weather Forecast

Advertisements
Track Severe Weather on mobile